createdAt,value
2022-12-07T00:01:41.477Z,17.05
2022-12-07T00:04:17.935Z,16.17
2022-12-07T00:06:51.537Z,16.95
2022-12-07T00:09:22.254Z,14.68
2022-12-07T00:11:53.713Z,14.07
2022-12-07T00:14:26.501Z,14.13
2022-12-07T00:16:59.560Z,12.00
2022-12-07T00:19:31.401Z,14.80
2022-12-07T00:22:02.741Z,12.77
2022-12-07T00:24:33.634Z,12.93
2022-12-07T00:27:06.723Z,11.75
2022-12-07T00:29:39.758Z,14.37
2022-12-07T00:32:10.394Z,13.87
2022-12-07T00:34:43.805Z,12.43
2022-12-07T00:37:14.575Z,11.57
2022-12-07T00:39:47.318Z,14.03
2022-12-07T00:42:18.456Z,14.97
2022-12-07T00:44:49.749Z,15.30
2022-12-07T00:47:21.606Z,12.73
2022-12-07T00:49:53.655Z,11.63
2022-12-07T00:52:24.098Z,12.00
2022-12-07T00:54:56.901Z,12.37
2022-12-07T00:57:27.513Z,11.00
2022-12-07T00:59:59.228Z,11.87
2022-12-07T01:02:29.904Z,12.47
2022-12-07T01:05:00.298Z,13.23
2022-12-07T01:07:31.061Z,11.60
2022-12-07T01:10:02.757Z,10.93
2022-12-07T01:12:34.558Z,11.50
2022-12-07T01:15:06.103Z,11.20
2022-12-07T01:17:38.260Z,26.57
2022-12-07T01:20:10.166Z,12.97
2022-12-07T01:22:42.440Z,11.67
2022-12-07T01:25:13.787Z,10.03
2022-12-07T01:27:50.261Z,9.73
2022-12-07T01:30:23.558Z,11.63
2022-12-07T01:32:54.220Z,10.87
2022-12-07T01:35:26.887Z,11.07
2022-12-07T01:37:58.490Z,9.37
2022-12-07T01:40:29.006Z,10.30
2022-12-07T01:43:01.083Z,11.23
2022-12-07T01:45:44.602Z,8.70
2022-12-07T01:48:20.167Z,7.50
2022-12-07T01:50:53.358Z,10.03
2022-12-07T01:53:26.980Z,7.67
2022-12-07T01:55:59.583Z,7.87
2022-12-07T01:58:30.904Z,6.77
2022-12-07T02:01:01.619Z,9.03
2022-12-07T02:03:36.242Z,7.33
2022-12-07T02:06:08.503Z,8.43
2022-12-07T02:08:39.498Z,6.03
2022-12-07T02:11:11.275Z,7.83
2022-12-07T02:13:44.832Z,7.57
2022-12-07T02:16:33.436Z,7.37
2022-12-07T02:19:28.029Z,9.13
2022-12-07T02:22:15.714Z,7.17
2022-12-07T02:24:52.287Z,8.10
2022-12-07T02:27:32.264Z,9.20
2022-12-07T02:30:06.858Z,7.13
2022-12-07T02:32:46.347Z,7.10
2022-12-07T02:35:22.643Z,8.87
2022-12-07T02:37:56.724Z,7.67
2022-12-07T02:40:39.013Z,9.00
2022-12-07T02:43:16.569Z,9.97
2022-12-07T02:45:49.877Z,9.10
2022-12-07T02:48:22.617Z,9.60
2022-12-07T02:50:54.636Z,10.23
2022-12-07T02:53:37.640Z,9.13
2022-12-07T02:56:35.452Z,9.30
2022-12-07T02:59:17.998Z,9.47
2022-12-07T03:02:12.104Z,10.20
2022-12-07T03:05:00.697Z,10.63
2022-12-07T03:07:36.900Z,11.10
2022-12-07T03:10:19.136Z,11.63
2022-12-07T03:13:04.583Z,12.67
2022-12-07T03:16:00.848Z,12.03
2022-12-07T03:18:34.661Z,11.30
2022-12-07T03:21:10.780Z,12.03
2022-12-07T03:23:44.329Z,11.17
2022-12-07T03:26:16.744Z,12.97
2022-12-07T03:28:50.658Z,12.97
2022-12-07T03:31:27.360Z,12.40
2022-12-07T03:34:10.099Z,15.57
2022-12-07T03:36:43.797Z,14.23
2022-12-07T03:39:35.461Z,13.07
2022-12-07T03:42:08.465Z,13.43
2022-12-07T03:44:41.695Z,15.63
2022-12-07T03:47:22.323Z,14.70
2022-12-07T03:49:56.337Z,12.70
2022-12-07T03:52:40.954Z,13.75
2022-12-07T03:55:30.055Z,12.40
2022-12-07T03:58:15.434Z,14.17
2022-12-07T04:00:47.249Z,14.70
2022-12-07T04:03:17.846Z,14.17
2022-12-07T04:05:48.894Z,15.17
2022-12-07T04:08:20.243Z,16.57
2022-12-07T04:10:52.376Z,13.20
2022-12-07T04:13:22.999Z,16.43
2022-12-07T04:15:53.730Z,14.80
2022-12-07T04:18:27.529Z,14.85
2022-12-07T04:20:58.003Z,16.83
2022-12-07T04:23:31.158Z,17.63
2022-12-07T04:26:03.090Z,17.07
2022-12-07T04:28:34.181Z,17.83
2022-12-07T04:31:06.075Z,19.07
2022-12-07T04:33:37.736Z,17.57
2022-12-07T04:36:08.645Z,19.93
2022-12-07T04:38:41.649Z,17.60
2022-12-07T04:41:13.030Z,19.63
2022-12-07T04:43:44.880Z,20.93
2022-12-07T04:46:16.955Z,22.33
2022-12-07T04:48:47.595Z,19.57
2022-12-07T04:51:26.545Z,21.50
2022-12-07T04:54:00.379Z,22.47
2022-12-07T04:56:31.663Z,20.20
2022-12-07T04:59:04.004Z,24.33
2022-12-07T05:01:36.251Z,23.50
2022-12-07T05:04:07.586Z,22.60
2022-12-07T05:06:39.667Z,23.53
2022-12-07T05:09:11.898Z,28.40
2022-12-07T05:11:44.306Z,24.07
2022-12-07T05:14:20.596Z,26.93
2022-12-07T05:16:52.628Z,25.88
2022-12-07T05:19:23.818Z,27.47
2022-12-07T05:21:57.433Z,28.33
2022-12-07T05:24:28.011Z,29.50
2022-12-07T05:26:58.711Z,28.83
2022-12-07T05:29:29.232Z,29.30
2022-12-07T05:32:00.869Z,26.67
2022-12-07T05:34:31.554Z,25.52
2022-12-07T05:37:01.994Z,27.83
2022-12-07T05:39:32.973Z,30.40
2022-12-07T05:42:16.901Z,28.80
2022-12-07T05:44:48.390Z,28.23
2022-12-07T05:47:19.299Z,31.93
2022-12-07T05:49:51.570Z,30.23
2022-12-07T05:52:22.246Z,30.95
2022-12-07T05:54:53.712Z,32.20
2022-12-07T05:57:24.341Z,28.30
2022-12-07T05:59:55.007Z,29.13
2022-12-07T06:02:25.635Z,31.43
2022-12-07T06:04:56.201Z,29.10
2022-12-07T06:07:26.840Z,30.40
2022-12-07T06:09:57.333Z,28.07
2022-12-07T06:12:36.790Z,29.30
2022-12-07T06:15:08.331Z,28.87
2022-12-07T06:17:39.107Z,28.37
2022-12-07T06:20:10.082Z,29.20
2022-12-07T06:22:40.749Z,28.33
2022-12-07T06:25:13.720Z,26.43
2022-12-07T06:27:45.491Z,29.17
2022-12-07T06:30:16.458Z,26.47
2022-12-07T06:32:48.669Z,27.60
2022-12-07T06:35:19.747Z,23.87
2022-12-07T06:37:53.626Z,24.60
2022-12-07T06:40:24.237Z,27.05
2022-12-07T06:42:56.331Z,28.27
2022-12-07T06:45:27.031Z,26.93
2022-12-07T06:47:58.838Z,29.75
2022-12-07T06:50:31.915Z,25.63
2022-12-07T06:53:02.632Z,29.20
2022-12-07T06:55:34.539Z,28.67
2022-12-07T06:58:05.177Z,29.47
2022-12-07T07:00:36.264Z,28.30
2022-12-07T07:03:06.709Z,30.10
2022-12-07T07:05:40.298Z,31.07
2022-12-07T07:08:28.075Z,31.48
2022-12-07T07:10:45.058Z,32.30
2022-12-07T07:13:16.613Z,30.87
2022-12-07T07:15:48.729Z,31.13
2022-12-07T07:18:19.360Z,27.90
2022-12-07T07:20:50.251Z,29.03
2022-12-07T07:23:22.164Z,31.80
2022-12-07T07:25:53.362Z,28.33
2022-12-07T07:28:24.297Z,30.37
2022-12-07T07:30:55.841Z,27.30
2022-12-07T07:33:26.217Z,28.50
2022-12-07T07:35:58.733Z,24.57
2022-12-07T07:38:29.458Z,25.10
2022-12-07T07:41:02.137Z,23.98
2022-12-07T07:43:35.716Z,24.67
2022-12-07T07:46:06.377Z,21.83
2022-12-07T07:48:36.971Z,23.22
2022-12-07T07:51:09.318Z,22.82
2022-12-07T07:53:40.184Z,22.03
2022-12-07T07:56:11.332Z,23.32
2022-12-07T07:58:41.760Z,20.93
2022-12-07T08:01:12.462Z,18.63
2022-12-07T08:03:44.148Z,21.27
2022-12-07T08:06:14.950Z,14.73
2022-12-07T08:08:52.061Z,17.53
2022-12-07T08:11:22.699Z,17.37
2022-12-07T08:13:54.327Z,14.40
2022-12-07T08:16:25.861Z,16.53
2022-12-07T08:18:58.374Z,13.43
2022-12-07T08:21:32.282Z,15.77
2022-12-07T08:24:02.959Z,13.60
2022-12-07T08:26:34.197Z,16.50
2022-12-07T08:29:05.412Z,11.60
2022-12-07T08:31:36.130Z,8.97
2022-12-07T08:34:06.747Z,8.43
2022-12-07T08:36:38.442Z,10.87
2022-12-07T08:39:30.958Z,9.37
2022-12-07T08:41:41.547Z,9.40
2022-12-07T08:44:12.717Z,6.53
2022-12-07T08:46:49.165Z,6.70
2022-12-07T08:49:23.738Z,5.50
2022-12-07T08:51:54.506Z,5.43
2022-12-07T08:54:25.488Z,5.50
2022-12-07T08:56:59.839Z,4.53
2022-12-07T08:59:31.470Z,4.37
2022-12-07T09:02:03.709Z,4.17
2022-12-07T09:04:35.384Z,5.65
2022-12-07T09:07:07.401Z,3.75
2022-12-07T09:09:38.123Z,4.10
2022-12-07T09:12:09.155Z,3.93
2022-12-07T09:14:39.847Z,4.13
2022-12-07T09:17:12.705Z,3.70
2022-12-07T09:19:43.707Z,3.70
2022-12-07T09:22:16.451Z,2.67
2022-12-07T09:24:48.294Z,3.17
2022-12-07T09:27:22.326Z,3.50
2022-12-07T09:29:53.141Z,4.00
2022-12-07T09:32:24.200Z,3.80
2022-12-07T09:34:57.816Z,3.40
2022-12-07T09:37:32.842Z,4.77
2022-12-07T09:40:10.471Z,3.80
2022-12-07T09:42:47.520Z,4.77
2022-12-07T09:45:27.266Z,3.13
2022-12-07T09:47:59.304Z,4.07
2022-12-07T09:50:31.031Z,3.40
2022-12-07T09:53:07.720Z,4.67
2022-12-07T09:55:43.974Z,4.00
2022-12-07T09:58:29.052Z,2.80
2022-12-07T10:01:11.603Z,5.57
2022-12-07T10:03:45.311Z,4.90
2022-12-07T10:06:18.341Z,2.93
2022-12-07T10:08:48.989Z,4.93
2022-12-07T10:11:19.904Z,3.17
2022-12-07T10:13:55.075Z,4.00
2022-12-07T10:16:45.008Z,3.50
2022-12-07T10:19:34.254Z,2.93
2022-12-07T10:22:15.216Z,3.20
2022-12-07T10:24:49.355Z,3.27
2022-12-07T10:27:25.798Z,3.20
2022-12-07T10:29:58.183Z,2.67
2022-12-07T10:32:31.936Z,3.77
2022-12-07T10:35:25.481Z,4.83
2022-12-07T10:37:59.017Z,4.73
2022-12-07T10:40:46.653Z,4.10
2022-12-07T10:43:20.354Z,4.43
2022-12-07T10:46:03.607Z,4.37
2022-12-07T10:48:40.859Z,3.40
2022-12-07T10:51:14.347Z,4.80
2022-12-07T10:53:50.609Z,4.73
2022-12-07T10:56:48.206Z,4.93
2022-12-07T10:59:19.245Z,6.20
2022-12-07T11:01:55.587Z,7.57
2022-12-07T11:04:45.781Z,5.40
2022-12-07T11:07:56.882Z,7.40
2022-12-07T11:10:49.435Z,7.80
2022-12-07T11:13:30.052Z,7.77
2022-12-07T11:16:08.433Z,9.57
2022-12-07T11:19:01.562Z,8.33
2022-12-07T11:21:44.613Z,9.70
2022-12-07T11:24:22.233Z,7.67
2022-12-07T11:27:02.905Z,7.57
2022-12-07T11:30:03.144Z,5.77
2022-12-07T11:32:49.145Z,9.30
2022-12-07T11:35:31.929Z,6.13
2022-12-07T11:38:06.011Z,6.03
2022-12-07T11:40:38.814Z,15.80
2022-12-07T11:43:21.906Z,10.23
2022-12-07T11:46:07.869Z,13.77
2022-12-07T11:48:44.068Z,16.57
2022-12-07T11:51:17.403Z,6.63
2022-12-07T11:53:56.239Z,6.30
2022-12-07T11:56:29.551Z,7.27
2022-12-07T11:59:06.291Z,5.63
2022-12-07T12:01:42.766Z,6.70
2022-12-07T12:04:16.422Z,8.83
2022-12-07T12:06:47.554Z,6.57
2022-12-07T12:14:49.210Z,5.23
2022-12-07T12:17:56.080Z,6.80
2022-12-07T12:20:44.597Z,11.07
2022-12-07T12:23:44.487Z,4.63
2022-12-07T12:26:24.237Z,7.00
2022-12-07T12:29:04.251Z,4.60
2022-12-07T12:31:38.341Z,4.80
2022-12-07T12:34:34.946Z,5.97
2022-12-07T12:37:25.963Z,5.78
2022-12-07T12:40:26.227Z,5.20
2022-12-07T12:42:58.589Z,6.73
2022-12-07T12:45:32.470Z,5.97
2022-12-07T12:48:04.701Z,6.60
2022-12-07T12:50:39.459Z,6.23
2022-12-07T12:53:27.501Z,6.70
2022-12-07T12:56:17.348Z,10.53
2022-12-07T12:58:50.776Z,6.87
2022-12-07T13:01:41.299Z,5.20
2022-12-07T13:04:32.750Z,8.23
2022-12-07T13:07:03.843Z,5.40
2022-12-07T13:09:36.346Z,6.53
2022-12-07T13:12:10.483Z,5.00
2022-12-07T13:14:49.717Z,4.03
2022-12-07T13:17:40.002Z,5.60
2022-12-07T13:20:17.491Z,5.28
2022-12-07T13:22:48.306Z,5.23
2022-12-07T13:25:24.642Z,3.35
2022-12-07T13:28:10.835Z,6.77
2022-12-07T13:30:45.116Z,4.73
2022-12-07T13:33:21.474Z,4.20
2022-12-07T13:35:55.105Z,6.90
2022-12-07T13:38:38.413Z,6.20
2022-12-07T13:41:17.980Z,5.40
2022-12-07T13:43:59.016Z,6.87
2022-12-07T13:46:44.248Z,5.15
2022-12-07T13:49:22.291Z,5.10
2022-12-07T13:51:55.642Z,4.67
2022-12-07T13:54:26.282Z,5.12
2022-12-07T13:56:59.993Z,3.62
2022-12-07T13:59:32.493Z,3.95
2022-12-07T14:02:05.845Z,6.90
2022-12-07T14:04:41.036Z,6.83
2022-12-07T14:07:31.228Z,5.92
2022-12-07T14:10:05.072Z,4.03
2022-12-07T14:12:39.882Z,6.27
2022-12-07T14:15:19.265Z,6.77
2022-12-07T14:17:57.444Z,5.00
2022-12-07T14:20:33.548Z,5.87
2022-12-07T14:23:05.835Z,5.73
2022-12-07T14:25:54.876Z,6.17
2022-12-07T14:28:34.956Z,5.73
2022-12-07T14:31:18.576Z,4.20
2022-12-07T14:33:51.699Z,6.22
2022-12-07T14:36:23.470Z,5.40
2022-12-07T14:38:56.192Z,7.93
2022-12-07T14:41:49.112Z,6.07
2022-12-07T14:44:29.395Z,6.90
2022-12-07T14:54:38.244Z,4.67
2022-12-07T14:57:12.262Z,5.95
2022-12-07T14:59:45.599Z,7.10
2022-12-07T15:02:21.441Z,4.47
2022-12-07T15:04:54.867Z,6.10
2022-12-07T15:07:28.325Z,5.90
2022-12-07T15:10:02.786Z,4.13
2022-12-07T15:12:49.071Z,5.47
2022-12-07T15:15:22.043Z,5.73
2022-12-07T15:17:59.383Z,6.47
2022-12-07T15:20:31.078Z,5.07
2022-12-07T15:23:04.441Z,6.83
2022-12-07T15:25:36.053Z,5.65
2022-12-07T15:28:07.908Z,6.47
2022-12-07T15:30:46.551Z,6.53
2022-12-07T15:33:18.344Z,5.47
2022-12-07T15:35:49.144Z,5.30
2022-12-07T15:38:39.575Z,4.70
2022-12-07T15:40:53.598Z,4.80
2022-12-07T15:43:42.590Z,5.00
2022-12-07T15:46:13.145Z,6.10
2022-12-07T15:48:44.411Z,5.90
2022-12-07T15:51:14.910Z,4.20
2022-12-07T15:53:47.011Z,5.57
2022-12-07T15:56:17.518Z,6.87
2022-12-07T15:58:48.439Z,4.77
2022-12-07T16:01:21.277Z,6.33
2022-12-07T16:03:52.235Z,6.47
2022-12-07T16:06:23.417Z,7.10
2022-12-07T16:08:54.088Z,10.80
2022-12-07T16:11:25.787Z,6.17
2022-12-07T16:13:57.507Z,8.23
2022-12-07T16:16:28.918Z,5.17
2022-12-07T16:19:06.655Z,7.33
2022-12-07T16:21:37.890Z,4.27
2022-12-07T16:24:09.324Z,6.57
2022-12-07T16:26:43.651Z,4.43
2022-12-07T16:29:14.211Z,7.90
2022-12-07T16:31:44.926Z,4.23
2022-12-07T16:34:16.139Z,4.90
2022-12-07T16:37:04.565Z,4.60
2022-12-07T16:39:19.672Z,3.33
2022-12-07T16:41:50.097Z,6.83
2022-12-07T16:44:20.942Z,7.80
2022-12-07T16:46:52.712Z,5.03
2022-12-07T16:49:26.194Z,6.53
2022-12-07T16:54:33.518Z,6.70
2022-12-07T16:57:04.579Z,5.03
2022-12-07T16:59:35.615Z,5.33
2022-12-07T17:02:08.896Z,5.97
2022-12-07T17:04:42.290Z,8.00
2022-12-07T17:07:14.504Z,5.80
2022-12-07T17:09:45.199Z,5.30
2022-12-07T17:12:15.579Z,7.03
2022-12-07T17:15:06.727Z,5.40
2022-12-07T17:17:37.573Z,9.67
2022-12-07T17:20:10.735Z,5.43
2022-12-07T17:22:43.261Z,5.73
2022-12-07T17:25:16.379Z,6.37
2022-12-07T17:27:48.576Z,6.20
2022-12-07T17:30:28.646Z,7.20
2022-12-07T17:33:00.511Z,5.90
2022-12-07T17:35:31.134Z,6.93
2022-12-07T17:38:01.964Z,4.23
2022-12-07T17:40:35.906Z,4.53
2022-12-07T17:43:09.334Z,6.23
2022-12-07T17:45:39.923Z,6.50
2022-12-07T17:48:13.781Z,5.77
2022-12-07T17:51:03.445Z,8.97
2022-12-07T17:53:36.546Z,5.60
2022-12-07T17:58:40.635Z,5.97
2022-12-07T18:01:13.447Z,4.97
2022-12-07T18:03:47.780Z,6.53
2022-12-07T18:06:19.725Z,8.40
2022-12-07T18:08:51.337Z,7.63
2022-12-07T18:11:23.218Z,6.20
2022-12-07T18:13:56.478Z,5.43
2022-12-07T18:16:31.540Z,8.03
2022-12-07T18:19:05.111Z,6.97
2022-12-07T18:21:38.145Z,8.13
2022-12-07T18:24:14.681Z,8.08
2022-12-07T18:26:48.092Z,6.30
2022-12-07T18:29:19.691Z,8.07
2022-12-07T18:31:52.246Z,5.93
2022-12-07T18:34:22.917Z,7.93
2022-12-07T18:36:55.980Z,10.17
2022-12-07T18:39:33.941Z,10.83
2022-12-07T18:42:03.275Z,6.67
2022-12-07T18:44:36.354Z,9.07
2022-12-07T18:47:06.861Z,6.70
2022-12-07T18:49:39.086Z,9.37
2022-12-07T18:52:12.000Z,7.45
2022-12-07T18:54:44.212Z,8.87
2022-12-07T18:57:17.462Z,7.70
2022-12-07T18:59:49.376Z,8.23
2022-12-07T19:02:20.029Z,7.27
2022-12-07T19:04:54.524Z,10.77
2022-12-07T19:07:25.315Z,6.07
2022-12-07T19:09:58.996Z,6.83
2022-12-07T19:12:29.587Z,6.67
2022-12-07T19:15:03.225Z,8.17
2022-12-07T19:17:34.193Z,7.83
2022-12-07T19:20:07.000Z,7.03
2022-12-07T19:22:39.641Z,7.30
2022-12-07T19:25:13.302Z,8.80
2022-12-07T19:27:43.740Z,8.53
2022-12-07T19:30:14.792Z,6.80
2022-12-07T19:32:47.002Z,7.23
2022-12-07T19:35:19.250Z,7.23
2022-12-07T19:37:49.788Z,8.07
2022-12-07T19:40:20.261Z,7.47
2022-12-07T19:42:51.849Z,7.03
2022-12-07T19:45:23.668Z,8.97
2022-12-07T19:47:54.210Z,4.83
2022-12-07T19:50:24.747Z,7.23
2022-12-07T19:52:58.992Z,7.80
2022-12-07T19:55:29.805Z,9.90
2022-12-07T19:58:00.339Z,10.57
2022-12-07T20:00:30.991Z,9.47
2022-12-07T20:03:02.615Z,8.57
2022-12-07T20:05:37.542Z,13.77
2022-12-07T20:08:08.122Z,10.10
2022-12-07T20:10:42.237Z,8.33
2022-12-07T20:13:30.027Z,8.67
2022-12-07T20:16:19.356Z,8.88
2022-12-07T20:18:38.484Z,11.30
2022-12-07T20:21:11.848Z,9.83
2022-12-07T20:23:42.632Z,8.23
2022-12-07T20:26:14.911Z,8.47
2022-12-07T20:28:47.217Z,9.80
2022-12-07T20:31:18.430Z,7.60
2022-12-07T20:33:49.427Z,8.80
2022-12-07T20:36:21.441Z,8.53
2022-12-07T20:38:53.334Z,9.17
2022-12-07T20:41:42.021Z,10.77
2022-12-07T20:44:14.187Z,10.17
2022-12-07T20:46:45.882Z,10.63
2022-12-07T20:49:18.569Z,14.90
2022-12-07T20:51:49.307Z,14.97
2022-12-07T20:54:19.998Z,11.47
2022-12-07T20:56:51.062Z,10.23
2022-12-07T20:59:21.537Z,10.93
2022-12-07T21:01:53.111Z,13.93
2022-12-07T21:04:23.677Z,8.70
2022-12-07T21:06:55.716Z,9.33
2022-12-07T21:09:27.084Z,11.80
2022-12-07T21:11:58.052Z,8.83
2022-12-07T21:14:28.637Z,7.27
2022-12-07T21:16:59.322Z,11.27
2022-12-07T21:19:29.897Z,13.03
2022-12-07T21:22:00.508Z,11.23
2022-12-07T21:24:31.025Z,10.07
2022-12-07T21:27:01.451Z,9.60
2022-12-07T21:29:43.010Z,12.43
2022-12-07T21:32:05.749Z,9.97
2022-12-07T21:34:36.930Z,10.53
2022-12-07T21:37:07.398Z,9.83
2022-12-07T21:39:37.870Z,10.20
2022-12-07T21:42:08.349Z,10.87
2022-12-07T21:44:41.190Z,9.47
2022-12-07T21:47:11.746Z,10.60
2022-12-07T21:49:42.357Z,8.93
2022-12-07T21:52:13.890Z,8.77
2022-12-07T21:54:45.542Z,12.47
2022-12-07T21:57:15.975Z,9.67
2022-12-07T21:59:48.050Z,11.33
2022-12-07T22:02:18.849Z,14.27
2022-12-07T22:04:52.490Z,12.43
2022-12-07T22:07:23.004Z,13.70
2022-12-07T22:09:54.784Z,11.13
2022-12-07T22:12:25.310Z,12.80
2022-12-07T22:15:09.405Z,14.50
2022-12-07T22:17:41.027Z,13.67
2022-12-07T22:20:11.772Z,15.57
2022-12-07T22:22:45.523Z,13.17
2022-12-07T22:25:17.064Z,13.67
2022-12-07T22:27:49.896Z,11.03
2022-12-07T22:30:21.877Z,11.63
2022-12-07T22:32:52.471Z,11.93
2022-12-07T22:35:23.149Z,9.70
2022-12-07T22:37:55.299Z,10.63
2022-12-07T22:40:25.802Z,10.40
2022-12-07T22:43:01.402Z,8.27
2022-12-07T22:45:31.880Z,9.53
2022-12-07T22:48:02.362Z,12.30
2022-12-07T22:50:34.019Z,14.13
2022-12-07T22:53:05.466Z,13.90
2022-12-07T22:55:41.646Z,7.85
2022-12-07T22:58:14.163Z,10.73
2022-12-07T23:00:46.184Z,8.90
2022-12-07T23:03:18.526Z,9.73
2022-12-07T23:05:50.755Z,9.03
2022-12-07T23:08:23.991Z,11.90
2022-12-07T23:10:54.591Z,13.47
2022-12-07T23:13:32.378Z,9.97
2022-12-07T23:16:15.490Z,13.37
2022-12-07T23:18:46.486Z,14.20
2022-12-07T23:21:17.009Z,11.90
2022-12-07T23:23:47.535Z,8.67
2022-12-07T23:26:21.795Z,10.57
2022-12-07T23:28:54.317Z,10.83
2022-12-07T23:31:26.732Z,15.07
2022-12-07T23:33:59.612Z,12.60
2022-12-07T23:36:35.236Z,11.30
2022-12-07T23:39:06.003Z,10.33
2022-12-07T23:41:38.265Z,9.90
2022-12-07T23:44:11.172Z,10.27
2022-12-07T23:46:43.607Z,9.60
2022-12-07T23:49:14.456Z,9.90
2022-12-07T23:51:45.329Z,13.30
2022-12-07T23:54:15.720Z,10.30
2022-12-07T23:56:46.555Z,14.97
2022-12-07T23:59:18.291Z,8.83
